sensor_id;sensor_type;location;lat;lon;timestamp;P1;durP1;ratioP1;P2;durP2;ratioP2
79710;SDS011;69465;51.630;6.570;2023-05-10T00:01:34;23.70;;;14.43;;
79710;SDS011;69465;51.630;6.570;2023-05-10T00:04:00;24.57;;;15.33;;
79710;SDS011;69465;51.630;6.570;2023-05-10T00:06:27;24.03;;;15.97;;
79710;SDS011;69465;51.630;6.570;2023-05-10T00:08:53;26.23;;;15.57;;
79710;SDS011;69465;51.630;6.570;2023-05-10T00:11:20;27.30;;;16.70;;
79710;SDS011;69465;51.630;6.570;2023-05-10T00:13:48;29.73;;;17.67;;
79710;SDS011;69465;51.630;6.570;2023-05-10T00:16:15;32.17;;;18.33;;
79710;SDS011;69465;51.630;6.570;2023-05-10T00:18:41;31.00;;;18.70;;
79710;SDS011;69465;51.630;6.570;2023-05-10T00:21:08;29.27;;;18.03;;
79710;SDS011;69465;51.630;6.570;2023-05-10T00:23:34;33.60;;;19.80;;
79710;SDS011;69465;51.630;6.570;2023-05-10T00:26:01;31.80;;;19.13;;
79710;SDS011;69465;51.630;6.570;2023-05-10T00:28:28;30.70;;;18.03;;
79710;SDS011;69465;51.630;6.570;2023-05-10T00:30:54;32.70;;;19.30;;
79710;SDS011;69465;51.630;6.570;2023-05-10T00:33:21;36.47;;;20.80;;
79710;SDS011;69465;51.630;6.570;2023-05-10T00:35:48;30.80;;;18.77;;
79710;SDS011;69465;51.630;6.570;2023-05-10T00:38:15;36.37;;;19.80;;
79710;SDS011;69465;51.630;6.570;2023-05-10T00:40:41;36.53;;;21.07;;
79710;SDS011;69465;51.630;6.570;2023-05-10T00:43:08;34.17;;;20.03;;
79710;SDS011;69465;51.630;6.570;2023-05-10T00:45:35;40.53;;;21.63;;
79710;SDS011;69465;51.630;6.570;2023-05-10T00:48:02;31.77;;;19.33;;
79710;SDS011;69465;51.630;6.570;2023-05-10T00:50:30;37.47;;;20.87;;
79710;SDS011;69465;51.630;6.570;2023-05-10T00:52:58;38.50;;;21.63;;
79710;SDS011;69465;51.630;6.570;2023-05-10T00:55:25;38.20;;;21.30;;
79710;SDS011;69465;51.630;6.570;2023-05-10T00:57:53;33.93;;;18.87;;
79710;SDS011;69465;51.630;6.570;2023-05-10T01:00:20;36.97;;;21.40;;
79710;SDS011;69465;51.630;6.570;2023-05-10T01:02:46;32.17;;;19.40;;
79710;SDS011;69465;51.630;6.570;2023-05-10T01:05:14;39.60;;;21.57;;
79710;SDS011;69465;51.630;6.570;2023-05-10T01:07:41;42.50;;;22.03;;
79710;SDS011;69465;51.630;6.570;2023-05-10T01:10:07;42.30;;;23.60;;
79710;SDS011;69465;51.630;6.570;2023-05-10T01:12:39;41.80;;;21.63;;
79710;SDS011;69465;51.630;6.570;2023-05-10T01:15:08;39.17;;;21.40;;
79710;SDS011;69465;51.630;6.570;2023-05-10T01:17:37;37.70;;;21.07;;
79710;SDS011;69465;51.630;6.570;2023-05-10T01:20:06;38.70;;;20.90;;
79710;SDS011;69465;51.630;6.570;2023-05-10T01:22:46;46.47;;;22.93;;
79710;SDS011;69465;51.630;6.570;2023-05-10T01:31:30;46.40;;;22.53;;
79710;SDS011;69465;51.630;6.570;2023-05-10T01:34:20;44.70;;;23.60;;
79710;SDS011;69465;51.630;6.570;2023-05-10T01:36:58;43.47;;;22.77;;
79710;SDS011;69465;51.630;6.570;2023-05-10T01:39:32;46.50;;;23.53;;
79710;SDS011;69465;51.630;6.570;2023-05-10T01:42:09;44.83;;;21.80;;
79710;SDS011;69465;51.630;6.570;2023-05-10T01:44:46;45.60;;;23.83;;
79710;SDS011;69465;51.630;6.570;2023-05-10T01:47:22;42.10;;;22.53;;
79710;SDS011;69465;51.630;6.570;2023-05-10T01:50:15;40.70;;;22.30;;
79710;SDS011;69465;51.630;6.570;2023-05-10T01:52:50;40.23;;;22.73;;
79710;SDS011;69465;51.630;6.570;2023-05-10T01:55:20;41.37;;;22.60;;
79710;SDS011;69465;51.630;6.570;2023-05-10T01:57:51;50.53;;;24.60;;
79710;SDS011;69465;51.630;6.570;2023-05-10T02:00:22;45.33;;;24.83;;
79710;SDS011;69465;51.630;6.570;2023-05-10T02:02:50;51.53;;;27.33;;
79710;SDS011;69465;51.630;6.570;2023-05-10T02:05:19;52.67;;;27.13;;
79710;SDS011;69465;51.630;6.570;2023-05-10T02:07:47;51.23;;;26.53;;
79710;SDS011;69465;51.630;6.570;2023-05-10T02:10:15;49.47;;;26.97;;
79710;SDS011;69465;51.630;6.570;2023-05-10T02:12:45;53.10;;;27.20;;
79710;SDS011;69465;51.630;6.570;2023-05-10T02:15:15;54.70;;;28.50;;
79710;SDS011;69465;51.630;6.570;2023-05-10T02:17:48;58.40;;;29.53;;
79710;SDS011;69465;51.630;6.570;2023-05-10T02:20:15;54.63;;;28.00;;
79710;SDS011;69465;51.630;6.570;2023-05-10T02:22:45;51.47;;;25.63;;
79710;SDS011;69465;51.630;6.570;2023-05-10T02:25:15;51.73;;;26.90;;
79710;SDS011;69465;51.630;6.570;2023-05-10T02:27:43;54.50;;;27.03;;
79710;SDS011;69465;51.630;6.570;2023-05-10T02:30:12;60.23;;;28.27;;
79710;SDS011;69465;51.630;6.570;2023-05-10T02:32:40;46.33;;;24.93;;
79710;SDS011;69465;51.630;6.570;2023-05-10T02:35:08;45.80;;;26.47;;
79710;SDS011;69465;51.630;6.570;2023-05-10T02:37:36;47.87;;;26.03;;
79710;SDS011;69465;51.630;6.570;2023-05-10T02:40:04;53.63;;;28.33;;
79710;SDS011;69465;51.630;6.570;2023-05-10T02:42:33;46.13;;;25.23;;
79710;SDS011;69465;51.630;6.570;2023-05-10T02:45:04;54.03;;;26.60;;
79710;SDS011;69465;51.630;6.570;2023-05-10T02:47:34;44.20;;;24.57;;
79710;SDS011;69465;51.630;6.570;2023-05-10T02:50:01;42.83;;;24.97;;
79710;SDS011;69465;51.630;6.570;2023-05-10T02:52:29;50.83;;;27.87;;
79710;SDS011;69465;51.630;6.570;2023-05-10T02:55:03;46.93;;;24.30;;
79710;SDS011;69465;51.630;6.570;2023-05-10T02:57:32;46.23;;;26.47;;
79710;SDS011;69465;51.630;6.570;2023-05-10T03:00:00;49.67;;;26.57;;
79710;SDS011;69465;51.630;6.570;2023-05-10T03:02:28;52.93;;;27.10;;
79710;SDS011;69465;51.630;6.570;2023-05-10T03:04:55;49.47;;;26.53;;
79710;SDS011;69465;51.630;6.570;2023-05-10T03:07:21;54.53;;;29.40;;
79710;SDS011;69465;51.630;6.570;2023-05-10T03:09:49;54.60;;;29.30;;
79710;SDS011;69465;51.630;6.570;2023-05-10T03:18:09;70.07;;;32.37;;
79710;SDS011;69465;51.630;6.570;2023-05-10T03:20:48;53.63;;;31.43;;
79710;SDS011;69465;51.630;6.570;2023-05-10T03:26:23;68.27;;;33.00;;
79710;SDS011;69465;51.630;6.570;2023-05-10T03:28:52;69.63;;;34.40;;
79710;SDS011;69465;51.630;6.570;2023-05-10T03:31:20;63.10;;;33.20;;
79710;SDS011;69465;51.630;6.570;2023-05-10T03:33:50;67.00;;;34.07;;
79710;SDS011;69465;51.630;6.570;2023-05-10T03:36:19;64.27;;;33.17;;
79710;SDS011;69465;51.630;6.570;2023-05-10T03:38:46;55.80;;;32.23;;
79710;SDS011;69465;51.630;6.570;2023-05-10T03:41:12;61.93;;;33.13;;
79710;SDS011;69465;51.630;6.570;2023-05-10T03:43:39;63.60;;;32.03;;
79710;SDS011;69465;51.630;6.570;2023-05-10T03:46:06;65.43;;;32.63;;
79710;SDS011;69465;51.630;6.570;2023-05-10T03:48:32;65.53;;;32.10;;
79710;SDS011;69465;51.630;6.570;2023-05-10T03:50:59;65.07;;;33.90;;
79710;SDS011;69465;51.630;6.570;2023-05-10T03:53:26;58.27;;;32.07;;
79710;SDS011;69465;51.630;6.570;2023-05-10T03:55:53;64.10;;;32.90;;
79710;SDS011;69465;51.630;6.570;2023-05-10T03:58:20;61.90;;;30.07;;
79710;SDS011;69465;51.630;6.570;2023-05-10T04:00:46;64.13;;;31.90;;
79710;SDS011;69465;51.630;6.570;2023-05-10T04:03:13;66.33;;;33.03;;
79710;SDS011;69465;51.630;6.570;2023-05-10T04:05:40;72.20;;;34.07;;
79710;SDS011;69465;51.630;6.570;2023-05-10T04:08:07;72.17;;;34.90;;
79710;SDS011;69465;51.630;6.570;2023-05-10T04:10:33;65.70;;;33.57;;
79710;SDS011;69465;51.630;6.570;2023-05-10T04:13:00;66.13;;;34.20;;
79710;SDS011;69465;51.630;6.570;2023-05-10T04:15:26;84.60;;;37.13;;
79710;SDS011;69465;51.630;6.570;2023-05-10T04:17:53;75.90;;;36.63;;
79710;SDS011;69465;51.630;6.570;2023-05-10T04:20:20;79.03;;;36.53;;
79710;SDS011;69465;51.630;6.570;2023-05-10T04:22:47;73.03;;;34.97;;
79710;SDS011;69465;51.630;6.570;2023-05-10T04:25:13;73.50;;;35.00;;
79710;SDS011;69465;51.630;6.570;2023-05-10T04:27:40;79.87;;;36.57;;
79710;SDS011;69465;51.630;6.570;2023-05-10T04:30:07;88.50;;;38.50;;
79710;SDS011;69465;51.630;6.570;2023-05-10T04:32:34;85.73;;;40.00;;
79710;SDS011;69465;51.630;6.570;2023-05-10T04:35:00;89.43;;;39.93;;
79710;SDS011;69465;51.630;6.570;2023-05-10T04:37:27;92.30;;;40.73;;
79710;SDS011;69465;51.630;6.570;2023-05-10T04:39:54;89.37;;;41.30;;
79710;SDS011;69465;51.630;6.570;2023-05-10T04:42:20;89.77;;;40.63;;
79710;SDS011;69465;51.630;6.570;2023-05-10T04:44:47;90.00;;;40.83;;
79710;SDS011;69465;51.630;6.570;2023-05-10T04:47:14;91.57;;;42.27;;
79710;SDS011;69465;51.630;6.570;2023-05-10T04:49:40;93.23;;;40.77;;
79710;SDS011;69465;51.630;6.570;2023-05-10T04:52:06;93.33;;;41.37;;
79710;SDS011;69465;51.630;6.570;2023-05-10T04:54:33;83.87;;;41.47;;
79710;SDS011;69465;51.630;6.570;2023-05-10T04:57:00;92.37;;;43.07;;
79710;SDS011;69465;51.630;6.570;2023-05-10T04:59:26;90.33;;;42.00;;
79710;SDS011;69465;51.630;6.570;2023-05-10T05:01:53;95.40;;;41.93;;
79710;SDS011;69465;51.630;6.570;2023-05-10T05:04:20;90.90;;;42.83;;
79710;SDS011;69465;51.630;6.570;2023-05-10T05:06:46;86.70;;;40.57;;
79710;SDS011;69465;51.630;6.570;2023-05-10T05:09:13;85.60;;;41.80;;
79710;SDS011;69465;51.630;6.570;2023-05-10T05:11:39;89.73;;;42.30;;
79710;SDS011;69465;51.630;6.570;2023-05-10T05:14:06;88.67;;;42.40;;
79710;SDS011;69465;51.630;6.570;2023-05-10T05:16:33;82.63;;;40.83;;
79710;SDS011;69465;51.630;6.570;2023-05-10T05:19:00;91.40;;;42.83;;
79710;SDS011;69465;51.630;6.570;2023-05-10T05:21:26;82.20;;;40.77;;
79710;SDS011;69465;51.630;6.570;2023-05-10T05:23:53;82.73;;;39.67;;
79710;SDS011;69465;51.630;6.570;2023-05-10T05:26:20;77.87;;;38.63;;
79710;SDS011;69465;51.630;6.570;2023-05-10T05:28:46;73.43;;;38.90;;
79710;SDS011;69465;51.630;6.570;2023-05-10T05:31:13;75.33;;;39.57;;
79710;SDS011;69465;51.630;6.570;2023-05-10T05:33:39;70.90;;;37.70;;
79710;SDS011;69465;51.630;6.570;2023-05-10T05:36:06;68.10;;;36.67;;
79710;SDS011;69465;51.630;6.570;2023-05-10T05:38:33;73.30;;;38.77;;
79710;SDS011;69465;51.630;6.570;2023-05-10T05:40:59;64.17;;;35.57;;
79710;SDS011;69465;51.630;6.570;2023-05-10T05:43:26;64.13;;;36.60;;
79710;SDS011;69465;51.630;6.570;2023-05-10T05:45:53;69.50;;;36.57;;
79710;SDS011;69465;51.630;6.570;2023-05-10T05:48:21;61.70;;;35.60;;
79710;SDS011;69465;51.630;6.570;2023-05-10T05:50:47;64.33;;;36.20;;
79710;SDS011;69465;51.630;6.570;2023-05-10T05:53:14;66.60;;;36.17;;
79710;SDS011;69465;51.630;6.570;2023-05-10T05:55:50;65.70;;;35.17;;
79710;SDS011;69465;51.630;6.570;2023-05-10T05:58:17;66.57;;;36.67;;
79710;SDS011;69465;51.630;6.570;2023-05-10T06:00:44;65.53;;;35.83;;
79710;SDS011;69465;51.630;6.570;2023-05-10T06:03:11;66.10;;;36.53;;
79710;SDS011;69465;51.630;6.570;2023-05-10T06:05:38;66.70;;;36.97;;
79710;SDS011;69465;51.630;6.570;2023-05-10T06:08:04;61.40;;;35.00;;
79710;SDS011;69465;51.630;6.570;2023-05-10T06:10:31;62.07;;;36.23;;
79710;SDS011;69465;51.630;6.570;2023-05-10T06:12:58;65.97;;;36.37;;
79710;SDS011;69465;51.630;6.570;2023-05-10T06:15:25;70.17;;;36.93;;
79710;SDS011;69465;51.630;6.570;2023-05-10T06:17:51;69.07;;;37.13;;
79710;SDS011;69465;51.630;6.570;2023-05-10T06:20:18;63.10;;;36.80;;
79710;SDS011;69465;51.630;6.570;2023-05-10T06:22:45;66.00;;;37.67;;
79710;SDS011;69465;51.630;6.570;2023-05-10T06:25:12;67.63;;;35.73;;
79710;SDS011;69465;51.630;6.570;2023-05-10T06:27:38;75.80;;;38.87;;
79710;SDS011;69465;51.630;6.570;2023-05-10T06:30:05;66.30;;;36.73;;
79710;SDS011;69465;51.630;6.570;2023-05-10T06:32:38;66.53;;;37.47;;
79710;SDS011;69465;51.630;6.570;2023-05-10T06:35:05;64.17;;;36.03;;
79710;SDS011;69465;51.630;6.570;2023-05-10T06:37:33;67.27;;;36.53;;
79710;SDS011;69465;51.630;6.570;2023-05-10T06:39:59;62.73;;;36.67;;
79710;SDS011;69465;51.630;6.570;2023-05-10T06:42:26;59.43;;;35.47;;
79710;SDS011;69465;51.630;6.570;2023-05-10T06:44:52;68.07;;;36.70;;
79710;SDS011;69465;51.630;6.570;2023-05-10T06:47:19;61.20;;;35.90;;
79710;SDS011;69465;51.630;6.570;2023-05-10T06:49:46;61.83;;;37.03;;
79710;SDS011;69465;51.630;6.570;2023-05-10T06:52:12;59.40;;;34.97;;
79710;SDS011;69465;51.630;6.570;2023-05-10T06:54:39;63.77;;;35.40;;
79710;SDS011;69465;51.630;6.570;2023-05-10T06:57:05;63.37;;;37.03;;
79710;SDS011;69465;51.630;6.570;2023-05-10T06:59:48;63.67;;;36.43;;
79710;SDS011;69465;51.630;6.570;2023-05-10T07:02:15;68.83;;;37.10;;
79710;SDS011;69465;51.630;6.570;2023-05-10T07:04:41;63.53;;;35.60;;
79710;SDS011;69465;51.630;6.570;2023-05-10T07:07:08;68.50;;;37.43;;
79710;SDS011;69465;51.630;6.570;2023-05-10T07:09:35;63.23;;;35.43;;
79710;SDS011;69465;51.630;6.570;2023-05-10T07:12:01;64.30;;;36.43;;
79710;SDS011;69465;51.630;6.570;2023-05-10T07:14:28;63.43;;;36.67;;
79710;SDS011;69465;51.630;6.570;2023-05-10T07:16:55;60.67;;;35.43;;
79710;SDS011;69465;51.630;6.570;2023-05-10T07:19:21;57.93;;;34.43;;
79710;SDS011;69465;51.630;6.570;2023-05-10T07:21:48;59.97;;;36.33;;
79710;SDS011;69465;51.630;6.570;2023-05-10T07:24:15;62.13;;;34.00;;
79710;SDS011;69465;51.630;6.570;2023-05-10T07:26:41;59.23;;;33.77;;
79710;SDS011;69465;51.630;6.570;2023-05-10T07:29:08;59.00;;;34.77;;
79710;SDS011;69465;51.630;6.570;2023-05-10T07:31:35;55.27;;;32.03;;
79710;SDS011;69465;51.630;6.570;2023-05-10T07:34:01;53.80;;;30.87;;
79710;SDS011;69465;51.630;6.570;2023-05-10T07:36:27;54.87;;;31.33;;
79710;SDS011;69465;51.630;6.570;2023-05-10T07:38:54;52.33;;;29.63;;
79710;SDS011;69465;51.630;6.570;2023-05-10T07:41:21;54.30;;;31.43;;
79710;SDS011;69465;51.630;6.570;2023-05-10T07:43:48;53.37;;;32.00;;
79710;SDS011;69465;51.630;6.570;2023-05-10T07:46:14;50.90;;;29.70;;
79710;SDS011;69465;51.630;6.570;2023-05-10T07:48:41;57.10;;;32.13;;
79710;SDS011;69465;51.630;6.570;2023-05-10T07:51:07;52.33;;;30.67;;
79710;SDS011;69465;51.630;6.570;2023-05-10T07:53:34;51.47;;;28.63;;
79710;SDS011;69465;51.630;6.570;2023-05-10T07:56:19;43.60;;;27.20;;
79710;SDS011;69465;51.630;6.570;2023-05-10T07:58:46;42.30;;;24.77;;
79710;SDS011;69465;51.630;6.570;2023-05-10T08:01:13;41.17;;;25.70;;
79710;SDS011;69465;51.630;6.570;2023-05-10T08:03:39;40.87;;;26.73;;
79710;SDS011;69465;51.630;6.570;2023-05-10T08:06:06;42.53;;;26.23;;
79710;SDS011;69465;51.630;6.570;2023-05-10T08:08:32;45.50;;;26.80;;
79710;SDS011;69465;51.630;6.570;2023-05-10T08:10:59;43.07;;;24.60;;
79710;SDS011;69465;51.630;6.570;2023-05-10T08:13:26;38.90;;;25.10;;
79710;SDS011;69465;51.630;6.570;2023-05-10T08:15:52;37.33;;;24.37;;
79710;SDS011;69465;51.630;6.570;2023-05-10T08:18:19;37.60;;;23.50;;
79710;SDS011;69465;51.630;6.570;2023-05-10T08:20:47;32.23;;;20.63;;
79710;SDS011;69465;51.630;6.570;2023-05-10T08:23:13;29.97;;;21.83;;
79710;SDS011;69465;51.630;6.570;2023-05-10T08:25:40;34.60;;;23.67;;
79710;SDS011;69465;51.630;6.570;2023-05-10T08:28:07;40.80;;;24.97;;
79710;SDS011;69465;51.630;6.570;2023-05-10T08:30:37;38.47;;;23.50;;
79710;SDS011;69465;51.630;6.570;2023-05-10T08:33:03;42.67;;;25.43;;
79710;SDS011;69465;51.630;6.570;2023-05-10T08:35:30;42.97;;;25.60;;
79710;SDS011;69465;51.630;6.570;2023-05-10T08:37:56;42.90;;;25.57;;
79710;SDS011;69465;51.630;6.570;2023-05-10T08:40:23;51.10;;;28.27;;
79710;SDS011;69465;51.630;6.570;2023-05-10T08:43:05;45.33;;;28.17;;
79710;SDS011;69465;51.630;6.570;2023-05-10T08:45:33;45.57;;;25.93;;
79710;SDS011;69465;51.630;6.570;2023-05-10T08:48:06;43.73;;;25.70;;
79710;SDS011;69465;51.630;6.570;2023-05-10T08:50:39;47.70;;;26.20;;
79710;SDS011;69465;51.630;6.570;2023-05-10T08:53:10;45.83;;;26.43;;
79710;SDS011;69465;51.630;6.570;2023-05-10T08:55:38;43.80;;;27.10;;
79710;SDS011;69465;51.630;6.570;2023-05-10T08:58:06;39.63;;;24.27;;
79710;SDS011;69465;51.630;6.570;2023-05-10T09:00:33;41.83;;;23.50;;
79710;SDS011;69465;51.630;6.570;2023-05-10T09:03:00;36.23;;;23.57;;
79710;SDS011;69465;51.630;6.570;2023-05-10T09:05:29;41.07;;;24.53;;
79710;SDS011;69465;51.630;6.570;2023-05-10T09:07:55;38.60;;;23.40;;
79710;SDS011;69465;51.630;6.570;2023-05-10T09:10:22;35.23;;;22.73;;
79710;SDS011;69465;51.630;6.570;2023-05-10T09:12:51;34.50;;;21.53;;
79710;SDS011;69465;51.630;6.570;2023-05-10T09:15:19;34.20;;;21.07;;
79710;SDS011;69465;51.630;6.570;2023-05-10T09:17:46;38.47;;;23.90;;
79710;SDS011;69465;51.630;6.570;2023-05-10T09:20:15;33.97;;;20.90;;
79710;SDS011;69465;51.630;6.570;2023-05-10T09:22:41;37.10;;;22.20;;
79710;SDS011;69465;51.630;6.570;2023-05-10T09:25:09;32.50;;;21.10;;
79710;SDS011;69465;51.630;6.570;2023-05-10T09:27:38;34.93;;;21.53;;
79710;SDS011;69465;51.630;6.570;2023-05-10T09:30:06;32.57;;;22.07;;
79710;SDS011;69465;51.630;6.570;2023-05-10T09:32:40;29.27;;;20.60;;
79710;SDS011;69465;51.630;6.570;2023-05-10T09:35:15;32.73;;;20.60;;
79710;SDS011;69465;51.630;6.570;2023-05-10T09:37:44;28.33;;;19.37;;
79710;SDS011;69465;51.630;6.570;2023-05-10T09:40:13;27.70;;;17.67;;
79710;SDS011;69465;51.630;6.570;2023-05-10T09:42:50;24.43;;;17.57;;
79710;SDS011;69465;51.630;6.570;2023-05-10T09:45:18;31.23;;;17.50;;
79710;SDS011;69465;51.630;6.570;2023-05-10T09:47:46;28.97;;;17.37;;
79710;SDS011;69465;51.630;6.570;2023-05-10T09:50:12;28.13;;;17.87;;
79710;SDS011;69465;51.630;6.570;2023-05-10T09:52:49;28.37;;;18.03;;
79710;SDS011;69465;51.630;6.570;2023-05-10T09:55:21;27.60;;;18.23;;
79710;SDS011;69465;51.630;6.570;2023-05-10T09:57:49;27.70;;;18.17;;
79710;SDS011;69465;51.630;6.570;2023-05-10T10:00:25;27.17;;;18.63;;
79710;SDS011;69465;51.630;6.570;2023-05-10T10:02:59;25.67;;;18.50;;
79710;SDS011;69465;51.630;6.570;2023-05-10T10:05:30;25.43;;;18.23;;
79710;SDS011;69465;51.630;6.570;2023-05-10T10:08:04;28.20;;;18.33;;
79710;SDS011;69465;51.630;6.570;2023-05-10T10:10:32;25.33;;;16.27;;
79710;SDS011;69465;51.630;6.570;2023-05-10T10:12:59;26.93;;;17.37;;
79710;SDS011;69465;51.630;6.570;2023-05-10T10:15:26;22.83;;;16.50;;
79710;SDS011;69465;51.630;6.570;2023-05-10T10:17:53;26.83;;;17.77;;
79710;SDS011;69465;51.630;6.570;2023-05-10T10:20:21;28.93;;;18.67;;
79710;SDS011;69465;51.630;6.570;2023-05-10T10:22:49;27.40;;;20.10;;
79710;SDS011;69465;51.630;6.570;2023-05-10T10:25:16;29.63;;;20.27;;
79710;SDS011;69465;51.630;6.570;2023-05-10T10:27:55;30.07;;;19.73;;
79710;SDS011;69465;51.630;6.570;2023-05-10T10:30:43;27.50;;;19.97;;
79710;SDS011;69465;51.630;6.570;2023-05-10T10:33:30;29.03;;;20.87;;
79710;SDS011;69465;51.630;6.570;2023-05-10T10:36:13;33.77;;;21.77;;
79710;SDS011;69465;51.630;6.570;2023-05-10T10:41:27;31.00;;;22.10;;
79710;SDS011;69465;51.630;6.570;2023-05-10T10:49:42;29.60;;;20.53;;
79710;SDS011;69465;51.630;6.570;2023-05-10T10:52:27;31.57;;;22.40;;
79710;SDS011;69465;51.630;6.570;2023-05-10T10:54:57;32.60;;;22.47;;
79710;SDS011;69465;51.630;6.570;2023-05-10T10:57:49;30.83;;;21.67;;
79710;SDS011;69465;51.630;6.570;2023-05-10T11:02:58;32.63;;;21.97;;
79710;SDS011;69465;51.630;6.570;2023-05-10T11:07:59;29.33;;;21.00;;
79710;SDS011;69465;51.630;6.570;2023-05-10T11:10:32;31.77;;;21.47;;
79710;SDS011;69465;51.630;6.570;2023-05-10T11:13:02;32.97;;;22.53;;
79710;SDS011;69465;51.630;6.570;2023-05-10T11:15:35;31.23;;;21.23;;
79710;SDS011;69465;51.630;6.570;2023-05-10T11:18:18;32.40;;;21.10;;
79710;SDS011;69465;51.630;6.570;2023-05-10T11:20:55;33.27;;;22.57;;
79710;SDS011;69465;51.630;6.570;2023-05-10T11:23:29;30.03;;;21.17;;
79710;SDS011;69465;51.630;6.570;2023-05-10T11:26:17;30.53;;;21.40;;
79710;SDS011;69465;51.630;6.570;2023-05-10T11:28:45;32.93;;;20.10;;
79710;SDS011;69465;51.630;6.570;2023-05-10T11:31:16;28.13;;;19.93;;
79710;SDS011;69465;51.630;6.570;2023-05-10T11:33:47;26.17;;;20.27;;
79710;SDS011;69465;51.630;6.570;2023-05-10T11:36:15;27.87;;;18.33;;
79710;SDS011;69465;51.630;6.570;2023-05-10T11:38:43;27.80;;;19.40;;
79710;SDS011;69465;51.630;6.570;2023-05-10T11:41:11;26.03;;;18.57;;
79710;SDS011;69465;51.630;6.570;2023-05-10T11:43:38;20.60;;;17.27;;
79710;SDS011;69465;51.630;6.570;2023-05-10T11:46:06;24.57;;;17.47;;
79710;SDS011;69465;51.630;6.570;2023-05-10T11:48:40;25.37;;;17.50;;
79710;SDS011;69465;51.630;6.570;2023-05-10T11:51:08;21.23;;;16.83;;
79710;SDS011;69465;51.630;6.570;2023-05-10T11:53:36;23.93;;;16.47;;
79710;SDS011;69465;51.630;6.570;2023-05-10T11:56:04;24.27;;;18.17;;
79710;SDS011;69465;51.630;6.570;2023-05-10T11:58:32;23.53;;;16.80;;
79710;SDS011;69465;51.630;6.570;2023-05-10T12:00:59;21.47;;;17.37;;
79710;SDS011;69465;51.630;6.570;2023-05-10T12:03:27;20.40;;;16.50;;
79710;SDS011;69465;51.630;6.570;2023-05-10T12:05:58;23.87;;;16.70;;
79710;SDS011;69465;51.630;6.570;2023-05-10T12:08:26;21.57;;;16.67;;
79710;SDS011;69465;51.630;6.570;2023-05-10T12:11:02;19.70;;;16.90;;
79710;SDS011;69465;51.630;6.570;2023-05-10T12:13:39;17.43;;;14.60;;
79710;SDS011;69465;51.630;6.570;2023-05-10T12:16:15;17.63;;;15.03;;
79710;SDS011;69465;51.630;6.570;2023-05-10T12:18:42;16.00;;;14.13;;
79710;SDS011;69465;51.630;6.570;2023-05-10T12:21:10;15.37;;;13.73;;
79710;SDS011;69465;51.630;6.570;2023-05-10T12:23:40;17.27;;;13.60;;
79710;SDS011;69465;51.630;6.570;2023-05-10T12:26:11;14.40;;;12.77;;
79710;SDS011;69465;51.630;6.570;2023-05-10T12:28:37;15.83;;;12.73;;
79710;SDS011;69465;51.630;6.570;2023-05-10T12:31:05;18.10;;;13.57;;
79710;SDS011;69465;51.630;6.570;2023-05-10T12:33:36;19.23;;;13.27;;
79710;SDS011;69465;51.630;6.570;2023-05-10T12:36:07;17.17;;;12.37;;
79710;SDS011;69465;51.630;6.570;2023-05-10T12:38:36;13.37;;;11.97;;
79710;SDS011;69465;51.630;6.570;2023-05-10T12:41:06;17.77;;;13.27;;
79710;SDS011;69465;51.630;6.570;2023-05-10T12:43:34;16.37;;;12.80;;
79710;SDS011;69465;51.630;6.570;2023-05-10T12:46:05;15.00;;;12.57;;
79710;SDS011;69465;51.630;6.570;2023-05-10T12:48:32;16.93;;;12.40;;
79710;SDS011;69465;51.630;6.570;2023-05-10T12:51:00;19.57;;;13.53;;
79710;SDS011;69465;51.630;6.570;2023-05-10T12:53:28;14.50;;;12.10;;
79710;SDS011;69465;51.630;6.570;2023-05-10T12:55:55;15.63;;;11.73;;
79710;SDS011;69465;51.630;6.570;2023-05-10T12:58:21;13.63;;;11.83;;
79710;SDS011;69465;51.630;6.570;2023-05-10T13:01:00;17.20;;;12.50;;
79710;SDS011;69465;51.630;6.570;2023-05-10T13:03:28;14.33;;;11.80;;
79710;SDS011;69465;51.630;6.570;2023-05-10T13:05:54;16.00;;;11.80;;
79710;SDS011;69465;51.630;6.570;2023-05-10T13:08:21;13.00;;;11.57;;
79710;SDS011;69465;51.630;6.570;2023-05-10T13:10:48;14.57;;;12.57;;
79710;SDS011;69465;51.630;6.570;2023-05-10T13:13:15;14.40;;;11.43;;
79710;SDS011;69465;51.630;6.570;2023-05-10T13:15:41;14.53;;;11.70;;
79710;SDS011;69465;51.630;6.570;2023-05-10T13:18:08;13.40;;;11.70;;
79710;SDS011;69465;51.630;6.570;2023-05-10T13:20:35;19.30;;;12.40;;
79710;SDS011;69465;51.630;6.570;2023-05-10T13:23:02;15.07;;;12.07;;
79710;SDS011;69465;51.630;6.570;2023-05-10T13:25:28;13.87;;;11.33;;
79710;SDS011;69465;51.630;6.570;2023-05-10T13:27:55;13.60;;;10.63;;
79710;SDS011;69465;51.630;6.570;2023-05-10T13:30:22;13.17;;;10.67;;
79710;SDS011;69465;51.630;6.570;2023-05-10T13:32:49;13.40;;;10.63;;
79710;SDS011;69465;51.630;6.570;2023-05-10T13:35:15;14.90;;;11.47;;
79710;SDS011;69465;51.630;6.570;2023-05-10T13:37:42;15.53;;;11.47;;
79710;SDS011;69465;51.630;6.570;2023-05-10T13:40:09;14.17;;;10.43;;
79710;SDS011;69465;51.630;6.570;2023-05-10T13:42:36;11.17;;;9.43;;
79710;SDS011;69465;51.630;6.570;2023-05-10T13:45:03;11.57;;;9.53;;
79710;SDS011;69465;51.630;6.570;2023-05-10T13:47:30;10.60;;;9.50;;
79710;SDS011;69465;51.630;6.570;2023-05-10T13:49:56;10.93;;;9.60;;
79710;SDS011;69465;51.630;6.570;2023-05-10T13:52:23;12.77;;;9.40;;
79710;SDS011;69465;51.630;6.570;2023-05-10T13:54:50;14.73;;;10.50;;
79710;SDS011;69465;51.630;6.570;2023-05-10T13:57:16;15.60;;;11.77;;
79710;SDS011;69465;51.630;6.570;2023-05-10T13:59:43;12.63;;;11.23;;
79710;SDS011;69465;51.630;6.570;2023-05-10T14:02:10;15.00;;;11.40;;
79710;SDS011;69465;51.630;6.570;2023-05-10T14:04:37;15.73;;;11.87;;
79710;SDS011;69465;51.630;6.570;2023-05-10T14:07:04;13.50;;;11.57;;
79710;SDS011;69465;51.630;6.570;2023-05-10T14:09:31;16.30;;;12.23;;
79710;SDS011;69465;51.630;6.570;2023-05-10T14:11:58;17.30;;;12.20;;
79710;SDS011;69465;51.630;6.570;2023-05-10T14:14:24;14.40;;;12.83;;
79710;SDS011;69465;51.630;6.570;2023-05-10T14:16:51;15.67;;;12.57;;
79710;SDS011;69465;51.630;6.570;2023-05-10T14:19:18;19.33;;;11.97;;
79710;SDS011;69465;51.630;6.570;2023-05-10T14:21:45;14.77;;;12.57;;
79710;SDS011;69465;51.630;6.570;2023-05-10T14:24:11;16.00;;;12.60;;
79710;SDS011;69465;51.630;6.570;2023-05-10T14:26:38;14.80;;;12.53;;
79710;SDS011;69465;51.630;6.570;2023-05-10T14:29:05;15.53;;;12.20;;
79710;SDS011;69465;51.630;6.570;2023-05-10T14:31:31;15.17;;;11.70;;
79710;SDS011;69465;51.630;6.570;2023-05-10T14:33:58;12.33;;;11.00;;
79710;SDS011;69465;51.630;6.570;2023-05-10T14:36:25;12.07;;;9.87;;
79710;SDS011;69465;51.630;6.570;2023-05-10T14:38:51;13.83;;;11.47;;
79710;SDS011;69465;51.630;6.570;2023-05-10T14:41:18;12.60;;;10.90;;
79710;SDS011;69465;51.630;6.570;2023-05-10T14:43:45;12.47;;;10.77;;
79710;SDS011;69465;51.630;6.570;2023-05-10T14:46:12;8.70;;;7.80;;
79710;SDS011;69465;51.630;6.570;2023-05-10T14:48:38;6.17;;;4.63;;
79710;SDS011;69465;51.630;6.570;2023-05-10T14:51:05;7.23;;;4.87;;
79710;SDS011;69465;51.630;6.570;2023-05-10T14:53:32;5.50;;;4.37;;
79710;SDS011;69465;51.630;6.570;2023-05-10T14:55:58;6.80;;;5.03;;
79710;SDS011;69465;51.630;6.570;2023-05-10T14:58:25;5.23;;;4.47;;
79710;SDS011;69465;51.630;6.570;2023-05-10T15:00:52;5.63;;;4.80;;